Time;durP1;ratioP1;P1;durP2;ratioP2;P2;SDS_P1;SDS_P2;PMS_P1;PMS_P2;Temp;Humidity;BMP_temperature;BMP_pressure;BME280_temperature;BME280_humidity;BME280_pressure;Samples;Min_cycle;Max_cycle;Signal;HPM_P1;HPM_P2
2021/01/12 00:00:26;;;;;;;17.55;4.78;;;;;;;9.20;74.17;100918.44;5015853;28;20034;-78
2021/01/12 00:02:54;;;;;;;18.58;4.07;;;;;;;9.20;74.67;100901.72;5015178;28;20113;-80
2021/01/12 00:05:21;;;;;;;19.25;4.00;;;;;;;9.33;73.57;100902.41;5015103;28;20083;-79
2021/01/12 00:07:49;;;;;;;14.00;4.50;;;;;;;9.27;74.08;100890.16;5014947;28;20044;-79
2021/01/12 00:10:17;;;;;;;11.18;3.92;;;;;;;9.21;74.42;100882.31;5015169;28;20065;-78
2021/01/12 00:12:43;;;;;;;8.63;3.80;;;;;;;9.22;74.27;100899.91;5014041;28;20125;-79
2021/01/12 00:15:10;;;;;;;11.40;3.67;;;;;;;9.20;74.77;100873.50;5015174;28;20377;-79
2021/01/12 00:17:37;;;;;;;10.77;3.92;;;;;;;9.23;73.94;100891.97;5015016;28;20635;-79
2021/01/12 00:20:06;;;;;;;8.05;3.53;;;;;;;9.01;75.13;100870.25;5014643;28;20041;-79
2021/01/12 00:22:33;;;;;;;10.18;3.65;;;;;;;9.21;74.38;100864.69;5015318;28;20052;-79
2021/01/12 00:24:59;;;;;;;17.23;5.65;;;;;;;9.25;73.95;100854.94;5014623;28;20097;-79
2021/01/12 00:27:26;;;;;;;10.95;4.30;;;;;;;9.12;75.05;100856.00;5014732;28;20036;-81
2021/01/12 00:29:53;;;;;;;12.63;4.40;;;;;;;9.03;74.73;100852.59;5014806;28;20054;-79
2021/01/12 00:32:24;;;;;;;12.07;3.88;;;;;;;8.97;75.19;100831.53;5014598;28;20105;-79
2021/01/12 00:34:52;;;;;;;14.68;4.38;;;;;;;9.06;75.18;100843.75;5013187;28;20076;-80
2021/01/12 00:37:19;;;;;;;11.18;4.60;;;;;;;9.30;74.35;100831.09;5014558;28;20438;-78
2021/01/12 00:39:46;;;;;;;15.15;6.50;;;;;;;9.14;74.81;100841.00;5014312;28;20030;-79
2021/01/12 00:42:13;;;;;;;13.07;4.68;;;;;;;9.15;74.47;100829.53;5014128;28;20179;-78
2021/01/12 00:44:39;;;;;;;17.65;4.82;;;;;;;9.27;74.59;100817.88;5013271;28;20091;-80
2021/01/12 00:47:07;;;;;;;18.27;4.82;;;;;;;9.26;74.62;100811.75;5013979;28;20107;-79
2021/01/12 00:49:34;;;;;;;19.55;4.88;;;;;;;9.13;74.69;100818.09;5013912;28;20041;-78
2021/01/12 00:52:00;;;;;;;17.35;4.93;;;;;;;9.22;74.50;100812.66;5013701;28;20369;-78
2021/01/12 00:54:27;;;;;;;18.75;4.55;;;;;;;9.40;73.89;100800.94;5014220;28;20540;-78
2021/01/12 00:56:55;;;;;;;12.98;4.68;;;;;;;9.39;74.01;100796.56;5013889;28;20376;-78
2021/01/12 00:59:21;;;;;;;21.58;4.63;;;;;;;9.36;73.94;100792.19;5014482;28;20026;-79
2021/01/12 01:01:49;;;;;;;18.33;5.55;;;;;;;9.42;74.17;100787.69;5014068;28;20083;-79
2021/01/12 01:04:17;;;;;;;27.35;5.10;;;;;;;9.44;73.59;100789.41;5013537;28;20040;-79
2021/01/12 01:06:48;;;;;;;20.92;4.45;;;;;;;9.28;74.72;100778.19;5014590;28;20566;-79
2021/01/12 01:09:14;;;;;;;12.70;4.30;;;;;;;9.26;74.59;100784.41;5014554;28;20081;-82
2021/01/12 01:11:43;;;;;;;20.25;5.28;;;;;;;9.34;74.66;100777.25;5014743;28;20049;-80
2021/01/12 01:14:10;;;;;;;17.63;5.03;;;;;;;9.30;74.78;100779.06;5014233;28;20341;-77
2021/01/12 01:16:38;;;;;;;20.67;6.03;;;;;;;9.40;74.20;100763.94;5014048;28;20030;-79
2021/01/12 01:19:05;;;;;;;18.15;5.93;;;;;;;9.11;75.41;100765.25;5013799;28;20065;-80
2021/01/12 01:21:32;;;;;;;26.38;7.00;;;;;;;9.32;75.26;100769.34;5013766;28;20048;-79
2021/01/12 01:23:59;;;;;;;14.88;4.63;;;;;;;9.39;74.77;100764.81;5013843;28;20499;-79
2021/01/12 01:26:25;;;;;;;16.45;4.82;;;;;;;9.41;74.71;100768.31;5013665;28;20022;-79
2021/01/12 01:28:52;;;;;;;19.88;5.60;;;;;;;9.56;74.57;100751.31;5013200;28;20037;-78
2021/01/12 01:31:18;;;;;;;23.02;6.22;;;;;;;9.67;73.80;100746.72;5014444;28;20061;-79
2021/01/12 01:33:47;;;;;;;15.75;4.55;;;;;;;9.35;75.30;100755.19;5013993;28;20045;-78
2021/01/12 01:36:14;;;;;;;24.42;4.88;;;;;;;9.43;74.70;100739.19;5013295;28;20617;-78
2021/01/12 01:38:41;;;;;;;17.90;6.20;;;;;;;9.31;75.80;100756.13;5013456;28;20048;-80
2021/01/12 01:41:10;;;;;;;27.15;7.03;;;;;;;9.45;75.50;100742.69;5013559;28;20396;-79
2021/01/12 01:43:47;;;;;;;24.38;6.32;;;;;;;9.36;76.16;100749.88;5013463;28;20045;-78
2021/01/12 01:46:21;;;;;;;22.02;6.53;;;;;;;9.51;75.53;100742.59;5011315;28;20037;-78
2021/01/12 01:48:54;;;;;;;34.35;9.82;;;;;;;9.51;75.73;100740.81;5012855;28;20480;-78
2021/01/12 01:51:20;;;;;;;22.10;5.53;;;;;;;9.46;75.56;100736.47;5013579;28;20061;-79
2021/01/12 01:53:48;;;;;;;27.08;6.25;;;;;;;9.62;75.11;100738.00;5013711;28;20136;-79
2021/01/12 01:56:16;;;;;;;25.15;5.88;;;;;;;9.60;75.20;100729.19;5013428;28;20057;-79
2021/01/12 01:58:43;;;;;;;21.17;5.85;;;;;;;9.54;75.95;100726.66;5013907;28;20101;-79
2021/01/12 02:01:10;;;;;;;22.13;4.55;;;;;;;9.53;75.82;100735.50;5013820;28;20041;-80
2021/01/12 02:03:45;;;;;;;18.98;4.35;;;;;;;9.71;75.40;100724.59;5015108;28;20034;-79
2021/01/12 02:11:58;;;;;;;17.60;3.83;;;;;;;9.69;75.70;100718.47;5091132;27;20385;-79
2021/01/12 02:14:28;;;;;;;17.38;3.50;;;;;;;9.65;76.42;100722.03;5071041;28;20090;-79
2021/01/12 02:16:57;;;;;;;16.83;3.25;;;;;;;9.61;76.25;100709.78;5068769;28;20586;-80
2021/01/12 02:19:28;;;;;;;15.05;3.38;;;;;;;9.76;75.82;100705.09;5050481;28;20029;-81
2021/01/12 02:22:04;;;;;;;12.27;2.80;;;;;;;9.69;75.80;100715.81;5050548;28;20480;-79
2021/01/12 02:24:33;;;;;;;14.23;3.72;;;;;;;9.89;75.29;100711.91;5050802;28;20170;-79
2021/01/12 02:26:59;;;;;;;19.65;3.80;;;;;;;9.75;75.64;100704.22;5050722;28;20053;-79
2021/01/12 02:29:26;;;;;;;18.42;3.30;;;;;;;9.84;75.44;100716.41;5050818;28;20021;-79
2021/01/12 02:31:55;;;;;;;8.20;2.53;;;;;;;9.69;75.83;100683.19;5049588;28;20419;-78
2021/01/12 02:34:25;;;;;;;16.17;3.17;;;;;;;9.81;75.73;100698.81;5051117;28;20464;-79
2021/01/12 02:36:52;;;;;;;19.00;4.40;;;;;;;9.88;75.29;100681.94;5050875;28;20415;-78
2021/01/12 02:39:18;;;;;;;15.02;3.33;;;;;;;10.01;75.02;100684.34;5050525;28;20028;-79
2021/01/12 02:41:45;;;;;;;5.95;2.90;;;;;;;10.02;74.90;100688.72;5050792;28;20061;-80
2021/01/12 02:44:20;;;;;;;10.73;3.03;;;;;;;9.95;75.38;100685.31;5050617;28;20029;-78
2021/01/12 02:46:48;;;;;;;11.23;2.90;;;;;;;9.92;75.46;100685.41;5050739;28;20029;-79
2021/01/12 02:49:15;;;;;;;19.52;3.20;;;;;;;10.11;74.80;100674.44;5050491;28;20536;-79
2021/01/12 02:51:41;;;;;;;15.40;3.53;;;;;;;10.22;74.24;100677.72;5050510;28;20029;-78
2021/01/12 02:54:08;;;;;;;11.50;3.03;;;;;;;10.20;74.26;100679.53;5050813;28;20067;-81
2021/01/12 02:56:34;;;;;;;13.18;3.72;;;;;;;10.14;74.69;100666.41;5049971;28;20029;-79
2021/01/12 02:59:01;;;;;;;11.27;3.55;;;;;;;10.13;74.45;100662.91;5050649;28;20044;-80
2021/01/12 03:01:28;;;;;;;15.20;3.63;;;;;;;10.08;74.55;100653.31;5050334;28;20460;-80
2021/01/12 03:03:54;;;;;;;17.63;3.22;;;;;;;10.11;74.85;100642.66;5050396;28;20026;-79
2021/01/12 03:06:23;;;;;;;14.63;3.63;;;;;;;10.24;74.30;100660.00;5050348;28;20033;-80
2021/01/12 03:08:50;;;;;;;20.05;3.40;;;;;;;10.17;74.65;100648.69;5049868;28;20053;-80
2021/01/12 03:11:16;;;;;;;12.75;3.03;;;;;;;10.14;74.43;100643.47;5049597;28;20037;-79
2021/01/12 03:13:43;;;;;;;10.18;2.88;;;;;;;10.13;74.77;100648.78;5050055;28;20029;-79
2021/01/12 03:16:09;;;;;;;12.65;3.25;;;;;;;9.96;75.55;100633.28;5049279;28;20095;-78
2021/01/12 03:18:36;;;;;;;10.07;3.03;;;;;;;9.92;75.60;100632.47;5049737;28;20101;-79
2021/01/12 03:21:02;;;;;;;18.17;2.95;;;;;;;10.09;75.28;100628.59;5048853;28;20029;-80
2021/01/12 03:23:29;;;;;;;11.95;2.90;;;;;;;10.04;75.50;100615.44;5035788;28;20381;-80
2021/01/12 03:25:55;;;;;;;10.65;2.90;;;;;;;9.91;75.82;100624.56;5036348;28;20029;-81
2021/01/12 03:28:21;;;;;;;14.77;2.95;;;;;;;10.12;74.90;100625.84;5036471;28;20065;-80
2021/01/12 03:30:48;;;;;;;11.63;3.47;;;;;;;10.18;74.53;100615.13;5036191;28;20425;-80
2021/01/12 03:33:14;;;;;;;12.70;3.25;;;;;;;10.18;74.85;100612.47;5036074;28;20033;-79
2021/01/12 03:35:41;;;;;;;18.42;3.53;;;;;;;10.02;75.10;100634.00;5035983;28;20495;-79
2021/01/12 03:38:07;;;;;;;20.92;3.40;;;;;;;10.12;75.01;100594.97;5036144;28;20041;-79
2021/01/12 03:40:34;;;;;;;14.10;3.58;;;;;;;9.98;75.38;100602.34;5036659;28;20021;-81
2021/01/12 03:43:00;;;;;;;15.07;4.32;;;;;;;10.09;75.16;100595.03;5035622;28;20156;-78
2021/01/12 03:45:28;;;;;;;9.30;3.25;;;;;;;9.86;76.32;100606.13;5035979;28;20109;-79
2021/01/12 03:47:55;;;;;;;11.98;3.25;;;;;;;10.15;75.05;100596.69;5035830;28;20461;-79
2021/01/12 03:50:24;;;;;;;19.98;4.32;;;;;;;10.04;75.38;100589.84;5035752;28;20037;-79
2021/01/12 03:52:54;;;;;;;24.08;4.43;;;;;;;10.27;74.80;100596.41;5035846;28;20033;-80
2021/01/12 03:55:21;;;;;;;13.80;3.63;;;;;;;10.10;75.08;100585.31;5035455;28;20033;-79
2021/01/12 03:57:47;;;;;;;16.98;3.58;;;;;;;10.12;75.15;100583.50;5035568;28;20353;-79
2021/01/12 04:00:14;;;;;;;15.98;5.22;;;;;;;10.03;75.44;100580.16;5035936;28;20460;-79
2021/01/12 04:02:41;;;;;;;19.60;3.85;;;;;;;10.30;74.56;100575.13;5035928;28;20037;-79
2021/01/12 04:05:08;;;;;;;19.75;4.20;;;;;;;10.03;75.60;100572.22;5035618;28;20110;-82
2021/01/12 04:07:37;;;;;;;17.52;4.10;;;;;;;10.33;74.58;100569.78;5036319;28;20456;-79
2021/01/12 04:10:05;;;;;;;17.63;3.95;;;;;;;10.26;74.70;100559.38;5035055;28;20523;-79
2021/01/12 04:12:32;;;;;;;20.73;4.47;;;;;;;10.20;75.04;100565.66;5035316;28;20052;-79
2021/01/12 04:14:58;;;;;;;17.33;4.32;;;;;;;10.25;74.97;100562.94;5035180;28;20055;-79
2021/01/12 04:17:24;;;;;;;20.63;4.18;;;;;;;10.31;74.66;100561.00;5034973;28;20026;-80
2021/01/12 04:19:51;;;;;;;18.45;4.40;;;;;;;10.16;75.25;100551.63;5034875;28;20060;-79
2021/01/12 04:22:17;;;;;;;24.20;4.35;;;;;;;10.39;74.61;100533.50;5035118;28;20108;-79
2021/01/12 04:24:43;;;;;;;16.88;4.07;;;;;;;10.32;74.94;100544.22;5035058;28;20540;-80
2021/01/12 04:27:10;;;;;;;25.60;4.57;;;;;;;10.42;74.30;100536.06;5034943;28;20055;-79
2021/01/12 04:29:36;;;;;;;16.58;4.32;;;;;;;10.41;74.43;100529.03;5035156;28;20022;-80
2021/01/12 04:32:03;;;;;;;19.52;4.30;;;;;;;10.37;74.68;100528.25;5035045;28;20037;-79
2021/01/12 04:34:29;;;;;;;26.25;4.25;;;;;;;10.32;74.83;100522.16;5033992;28;20057;-80
2021/01/12 04:36:55;;;;;;;16.63;4.45;;;;;;;10.35;74.78;100520.31;5034539;28;20053;-79
2021/01/12 04:39:21;;;;;;;16.08;4.28;;;;;;;10.28;74.82;100531.97;5034495;28;20045;-80
2021/01/12 04:41:47;;;;;;;19.58;5.05;;;;;;;10.34;75.20;100512.38;5034474;28;20044;-79
2021/01/12 04:44:14;;;;;;;15.35;4.32;;;;;;;10.31;75.08;100521.28;5034457;28;20111;-80
2021/01/12 04:46:40;;;;;;;20.13;4.93;;;;;;;10.27;75.38;100509.03;5034222;28;20338;-79
2021/01/12 04:49:06;;;;;;;20.73;5.20;;;;;;;10.19;75.75;100503.91;5034170;28;20490;-80
2021/01/12 04:51:33;;;;;;;15.57;4.07;;;;;;;10.33;75.10;100500.03;5034233;28;20041;-79
2021/01/12 04:53:59;;;;;;;21.73;5.65;;;;;;;10.33;74.99;100506.22;5034196;28;20109;-79
2021/01/12 04:56:25;;;;;;;17.33;5.25;;;;;;;10.54;74.56;100503.97;5034156;28;20462;-80
2021/01/12 04:58:53;;;;;;;21.88;4.68;;;;;;;10.36;75.23;100484.97;5034055;28;20036;-79
2021/01/12 05:01:21;;;;;;;15.15;4.18;;;;;;;10.47;74.89;100497.97;5034287;28;20088;-80
2021/01/12 05:03:51;;;;;;;19.75;4.07;;;;;;;10.30;75.72;100490.41;5034367;28;20117;-79
2021/01/12 05:06:21;;;;;;;19.30;3.72;;;;;;;10.37;75.28;100499.13;5034412;28;20025;-80
2021/01/12 05:08:56;;;;;;;14.77;3.97;;;;;;;10.35;75.38;100477.94;5034570;28;20056;-80
2021/01/12 05:11:26;;;;;;;11.88;3.40;;;;;;;10.38;75.39;100482.31;5033711;28;20120;-79
2021/01/12 05:13:56;;;;;;;19.42;3.85;;;;;;;10.44;75.49;100486.56;5033724;28;20037;-78
2021/01/12 05:16:24;;;;;;;13.43;3.13;;;;;;;10.21;76.10;100501.22;5033885;28;20026;-79
2021/01/12 05:18:51;;;;;;;11.82;2.58;;;;;;;10.39;75.59;100505.22;5033977;28;20032;-79
2021/01/12 05:21:18;;;;;;;19.10;4.13;;;;;;;10.49;75.37;100508.53;5034464;28;20033;-80
2021/01/12 05:26:46;;;;;;;11.52;2.35;;;;;;;10.41;74.67;100498.13;5111529;27;20362;-78
2021/01/12 05:29:14;;;;;;;7.10;2.10;;;;;;;10.61;73.87;100500.25;5110605;28;20039;-78
2021/01/12 05:31:45;;;;;;;17.17;2.33;;;;;;;10.65;73.87;100507.25;5110986;28;20028;-79
2021/01/12 05:34:13;;;;;;;9.05;2.17;;;;;;;10.55;73.93;100510.16;5111283;28;20058;-81
2021/01/12 05:36:49;;;;;;;15.50;2.25;;;;;;;10.58;73.55;100508.31;5109434;28;20024;-80
2021/01/12 05:39:18;;;;;;;11.40;1.73;;;;;;;10.44;73.85;100513.06;5111070;28;20138;-80
2021/01/12 05:41:47;;;;;;;12.82;2.50;;;;;;;10.47;73.50;100510.34;5111197;28;20028;-80
2021/01/12 05:44:14;;;;;;;18.17;2.63;;;;;;;10.38;73.65;100503.50;5110865;28;20035;-79
2021/01/12 05:46:44;;;;;;;31.30;3.80;;;;;;;10.30;73.61;100497.50;5110387;28;20031;-79
2021/01/12 05:49:10;;;;;;;16.52;2.47;;;;;;;10.38;73.19;100508.81;5110873;28;20468;-79
2021/01/12 05:51:44;;;;;;;14.13;2.95;;;;;;;10.29;73.37;100504.56;5110992;28;20028;-79
2021/01/12 05:54:29;;;;;;;10.55;2.78;;;;;;;10.40;72.95;100508.75;5110486;28;20135;-79
2021/01/12 05:56:57;;;;;;;8.65;1.70;;;;;;;10.38;73.02;100499.97;5110370;28;20370;-78
2021/01/12 05:59:25;;;;;;;15.13;1.85;;;;;;;10.29;73.08;100499.28;5110178;28;20062;-79
2021/01/12 06:01:54;;;;;;;8.00;2.00;;;;;;;10.35;72.66;100507.06;5110845;28;20042;-80
2021/01/12 06:04:20;;;;;;;10.02;1.58;;;;;;;10.31;72.91;100512.47;5110353;28;20028;-79
2021/01/12 06:06:49;;;;;;;8.93;1.48;;;;;;;10.26;73.10;100512.56;5110530;28;20051;-79
2021/01/12 06:09:16;;;;;;;7.38;1.50;;;;;;;10.30;72.55;100516.88;5109896;28;20035;-79
2021/01/12 06:11:46;;;;;;;8.57;2.45;;;;;;;10.30;72.97;100514.22;5110081;28;20027;-80
2021/01/12 06:14:14;;;;;;;11.90;1.40;;;;;;;10.18;73.11;100517.16;5110247;28;20043;-79
2021/01/12 06:16:43;;;;;;;11.20;1.63;;;;;;;10.13;73.16;100534.94;5110930;28;20092;-79
2021/01/12 06:27:25;;;;;;;8.13;1.95;;;;;;;10.21;72.97;100522.41;5086924;27;20451;-78
2021/01/12 06:29:52;;;;;;;8.07;2.13;;;;;;;10.26;72.68;100514.38;5070686;28;20069;-78
2021/01/12 06:32:21;;;;;;;15.30;1.70;;;;;;;10.32;72.73;100535.41;5070300;28;20074;-78
2021/01/12 06:34:51;;;;;;;15.15;2.05;;;;;;;10.17;73.15;100544.59;5070344;28;20459;-77
2021/01/12 06:37:19;;;;;;;6.60;1.75;;;;;;;10.18;73.35;100543.66;5069951;28;20033;-78
2021/01/12 06:39:48;;;;;;;6.50;1.58;;;;;;;10.11;73.32;100550.00;5070566;28;20037;-78
2021/01/12 06:42:19;;;;;;;7.78;1.77;;;;;;;10.04;73.23;100550.16;5070244;28;20121;-82
2021/01/12 06:44:49;;;;;;;8.23;1.50;;;;;;;9.97;73.18;100556.47;5069744;28;20029;-79
2021/01/12 06:47:18;;;;;;;10.60;1.30;;;;;;;9.98;73.24;100558.22;5069842;28;20456;-79
2021/01/12 06:49:45;;;;;;;5.85;1.20;;;;;;;9.92;73.15;100576.88;5070312;28;20366;-78
2021/01/12 06:52:13;;;;;;;8.68;2.20;;;;;;;10.05;72.73;100572.19;5070112;28;20130;-77
2021/01/12 06:57:23;;;;;;;6.93;1.10;;;;;;;9.70;73.19;100579.09;5067175;27;20384;-77
2021/01/12 06:59:54;;;;;;;6.05;1.15;;;;;;;9.55;73.49;100591.72;5067414;28;20036;-77
2021/01/12 07:02:30;;;;;;;5.07;1.23;;;;;;;9.65;73.54;100581.84;5067643;28;20462;-78
2021/01/12 07:07:49;;;;;;;5.85;1.40;;;;;;;9.65;73.57;100579.19;5084818;28;20381;-78
2021/01/12 07:10:17;;;;;;;3.75;1.33;;;;;;;9.67;72.77;100580.03;5070481;28;20037;-78
2021/01/12 07:12:45;;;;;;;7.78;1.60;;;;;;;9.53;73.22;100577.69;5070692;28;20468;-77
2021/01/12 07:17:58;;;;;;;6.28;1.30;;;;;;;9.51;73.66;100583.91;5082650;27;20394;-78
2021/01/12 07:20:26;;;;;;;10.60;1.23;;;;;;;9.49;73.33;100586.56;5071303;28;20090;-77
2021/01/12 07:23:13;;;;;;;11.77;2.08;;;;;;;9.60;73.42;100589.00;5071013;28;20338;-77
2021/01/12 07:25:42;;;;;;;4.85;2.00;;;;;;;9.43;73.59;100596.41;5071026;28;20083;-76
2021/01/12 07:28:16;;;;;;;4.30;1.45;;;;;;;9.46;73.75;100596.31;5070572;28;20024;-76
2021/01/12 07:30:45;;;;;;;8.25;2.40;;;;;;;9.58;73.57;100601.38;5070931;28;20017;-77
2021/01/12 07:36:03;;;;;;;13.98;2.63;;;;;;;9.71;73.26;100608.16;5090445;27;20399;-78
2021/01/12 07:38:30;;;;;;;10.10;3.10;;;;;;;9.59;73.61;100613.72;5058249;28;20029;-79
2021/01/12 07:40:59;;;;;;;12.50;4.63;;;;;;;9.54;73.94;100615.56;5051099;28;20033;-79
2021/01/12 07:43:26;;;;;;;14.98;3.33;;;;;;;9.37;74.45;100624.72;5050859;28;20026;-79
2021/01/12 07:45:55;;;;;;;7.55;2.83;;;;;;;9.64;73.30;100625.06;5050810;28;20039;-81
2021/01/12 07:48:22;;;;;;;11.18;2.60;;;;;;;9.55;73.66;100644.63;5050566;28;20031;-79
2021/01/12 07:50:50;;;;;;;11.27;1.77;;;;;;;9.60;73.35;100652.47;5050569;28;20044;-78
2021/01/12 07:53:16;;;;;;;8.25;1.40;;;;;;;9.66;72.63;100668.25;5050910;28;20037;-77
2021/01/12 07:55:44;;;;;;;7.68;1.60;;;;;;;9.61;72.61;100664.81;5050639;28;20128;-79
2021/01/12 07:58:13;;;;;;;9.77;1.42;;;;;;;9.54;72.48;100673.75;5050511;28;20036;-78
2021/01/12 08:00:40;;;;;;;9.75;1.77;;;;;;;9.60;72.43;100673.66;5050362;28;20029;-82
2021/01/12 08:03:07;;;;;;;39.22;19.25;;;;;;;9.51;72.39;100687.91;5049467;28;20025;-79
2021/01/12 08:05:34;;;;;;;21.10;8.25;;;;;;;9.45;72.35;100684.53;5050803;28;20029;-79
2021/01/12 08:08:15;;;;;;;16.80;6.20;;;;;;;9.37;72.45;100693.47;5050658;28;20033;-81
2021/01/12 08:10:42;;;;;;;15.45;6.25;;;;;;;9.41;72.61;100698.66;5050361;28;20036;-79
2021/01/12 08:13:13;;;;;;;17.23;6.93;;;;;;;9.41;72.48;100709.25;5050396;28;20025;-85
2021/01/12 08:15:43;;;;;;;14.75;7.07;;;;;;;9.33;72.72;100702.34;5049929;28;20025;-78
2021/01/12 08:18:18;;;;;;;23.45;8.38;;;;;;;9.47;71.97;100725.00;5050221;28;20111;-79
2021/01/12 08:20:46;;;;;;;23.95;8.40;;;;;;;9.47;71.97;100725.00;5049911;28;20411;-81
2021/01/12 08:23:17;;;;;;;20.92;8.00;;;;;;;9.32;72.02;100742.91;5050074;28;20526;-79
2021/01/12 08:25:43;;;;;;;12.32;5.78;;;;;;;9.20;72.48;100743.09;5049301;28;20073;-78
2021/01/12 08:28:10;;;;;;;11.05;4.95;;;;;;;9.09;72.42;100755.63;5049731;28;20044;-78
2021/01/12 08:30:38;;;;;;;11.98;4.05;;;;;;;9.10;71.49;100750.28;5050167;28;20029;-80
2021/01/12 08:33:35;;;;;;;8.27;2.83;;;;;;;9.09;71.48;100756.47;5050029;28;20116;-78
2021/01/12 08:36:09;;;;;;;11.32;3.13;;;;;;;8.99;71.55;100770.72;5049821;28;20045;-79
2021/01/12 08:38:37;;;;;;;6.15;2.10;;;;;;;8.80;72.06;100783.31;5064490;22;20063;-82
2021/01/12 08:41:08;;;;;;;8.88;1.98;;;;;;;8.92;71.99;100785.78;5048396;28;20037;-81
2021/01/12 08:43:36;;;;;;;6.35;1.38;;;;;;;8.72;72.66;100789.59;5050065;28;20436;-81
2021/01/12 08:46:06;;;;;;;11.13;1.60;;;;;;;8.80;72.53;100784.19;5043247;28;20026;-88
2021/01/12 08:48:32;;;;;;;4.88;1.70;;;;;;;8.95;71.99;100791.03;5035201;28;20038;-86
2021/01/12 08:50:59;;;;;;;9.13;2.08;;;;;;;8.72;72.48;100802.81;5036509;28;20341;-86
2021/01/12 08:53:30;;;;;;;10.63;1.58;;;;;;;8.80;72.21;100815.00;5036459;28;20030;-86
2021/01/12 08:56:05;;;;;;;10.90;1.55;;;;;;;8.95;72.09;100812.19;5034778;28;20038;-85
2021/01/12 08:58:31;;;;;;;5.60;1.52;;;;;;;8.95;72.04;100820.09;5036232;28;20029;-83
2021/01/12 09:01:00;;;;;;;7.95;1.83;;;;;;;8.94;71.94;100826.28;5035262;28;20030;-80
2021/01/12 09:03:27;;;;;;;17.27;1.48;;;;;;;8.84;71.76;100836.09;5036125;28;20109;-83
2021/01/12 09:05:56;;;;;;;3.63;1.52;;;;;;;8.84;72.09;100837.88;5035592;28;20041;-85
2021/01/12 09:08:24;;;;;;;7.47;1.40;;;;;;;8.77;72.16;100852.06;5027706;28;20392;-77
2021/01/12 09:10:53;;;;;;;13.88;2.00;;;;;;;8.92;71.49;100845.69;5025148;28;20026;-81
2021/01/12 09:13:28;;;;;;;10.85;1.92;;;;;;;9.05;71.78;100842.00;5023496;28;20051;-80
2021/01/12 09:15:55;;;;;;;14.98;2.33;;;;;;;8.89;71.82;100844.81;5027697;28;20045;-80
2021/01/12 09:18:25;;;;;;;6.95;1.30;;;;;;;8.93;72.05;100848.31;5036413;28;20087;-83
2021/01/12 09:23:37;;;;;;;8.48;1.10;;;;;;;8.85;71.83;100852.84;5158879;27;20414;-83
2021/01/12 09:26:04;;;;;;;14.20;1.25;;;;;;;8.79;71.67;100861.69;5112971;28;20381;-82
2021/01/12 09:28:32;;;;;;;12.10;1.75;;;;;;;8.83;71.71;100870.47;5117623;27;20036;-85
2021/01/12 09:31:08;;;;;;;6.78;1.45;;;;;;;8.82;71.70;100874.00;5117817;28;20032;-85
2021/01/12 09:33:36;;;;;;;6.75;1.30;;;;;;;8.74;71.03;100882.03;5118419;28;20039;-84
2021/01/12 09:41:27;;;;;;;7.75;1.08;;;;;;;8.87;71.27;100901.22;5065814;27;20362;-83
2021/01/12 09:43:55;;;;;;;10.98;1.02;;;;;;;8.70;71.66;100907.59;5064903;28;20058;-81
2021/01/12 09:46:22;;;;;;;7.10;0.88;;;;;;;8.48;71.85;100906.94;5065775;28;20467;-84
2021/01/12 09:48:49;;;;;;;11.82;1.50;;;;;;;8.18;72.06;100926.56;5065489;27;20494;-84
2021/01/12 09:51:15;;;;;;;11.77;1.17;;;;;;;8.29;71.76;100922.06;5065350;27;20713;-83
2021/01/12 09:53:47;;;;;;;5.60;0.90;;;;;;;8.14;71.86;100930.09;5065839;28;20032;-80
2021/01/12 09:56:15;;;;;;;8.80;1.27;;;;;;;8.22;71.14;100938.84;5065651;28;20049;-83
2021/01/12 09:58:44;;;;;;;7.82;0.90;;;;;;;8.29;71.52;100942.28;5078962;27;20068;-78
2021/01/12 10:01:10;;;;;;;3.10;1.05;;;;;;;8.47;70.48;100952.72;5152115;27;20384;-82
2021/01/12 10:03:36;;;;;;;6.38;1.13;;;;;;;8.21;71.70;100967.03;5046538;28;20025;-82
2021/01/12 10:06:03;;;;;;;7.07;0.93;;;;;;;8.30;70.87;100965.16;5066407;28;20032;-83
2021/01/12 10:08:31;;;;;;;8.55;1.20;;;;;;;8.25;71.03;100974.00;5072409;27;20085;-84
2021/01/12 10:10:58;;;;;;;6.38;1.00;;;;;;;8.33;70.90;100973.06;5065756;28;20507;-84
2021/01/12 10:13:25;;;;;;;6.57;1.23;;;;;;;8.33;71.09;100973.94;5065695;27;20467;-83
2021/01/12 10:15:51;;;;;;;11.13;2.30;;;;;;;8.46;70.05;100990.59;5067142;27;20029;-79
2021/01/12 10:18:18;;;;;;;4.78;1.27;;;;;;;8.46;70.28;101002.88;5066373;27;20041;-81
2021/01/12 10:20:44;;;;;;;9.10;0.95;;;;;;;8.42;69.90;100999.38;5065196;27;20037;-84
2021/01/12 10:23:10;;;;;;;7.80;1.05;;;;;;;8.33;69.76;101010.03;5066802;27;20125;-84
2021/01/12 10:25:37;;;;;;;10.05;1.13;;;;;;;8.24;69.36;101013.63;5065707;28;20021;-85
2021/01/12 10:28:04;;;;;;;5.85;1.25;;;;;;;8.34;69.36;101017.06;5066551;27;20040;-80
2021/01/12 10:30:30;;;;;;;10.02;1.30;;;;;;;8.24;69.04;101011.84;5066556;28;20132;-81
2021/01/12 10:32:57;;;;;;;6.68;1.08;;;;;;;8.38;69.39;101011.72;5066480;27;20468;-80
2021/01/12 10:35:25;;;;;;;5.55;1.30;;;;;;;8.22;68.90;101025.94;5058760;27;20051;-78
2021/01/12 10:37:51;;;;;;;3.47;0.88;;;;;;;8.37;68.43;101025.84;5060431;28;20028;-79
2021/01/12 10:40:18;;;;;;;8.50;1.88;;;;;;;8.32;68.16;101027.63;5065723;28;20049;-78
2021/01/12 10:42:46;;;;;;;7.85;1.90;;;;;;;8.26;67.45;101027.66;5068138;27;20054;-84
2021/01/12 10:45:14;;;;;;;18.35;2.08;;;;;;;8.30;67.63;101032.06;5067698;27;20044;-81
2021/01/12 10:47:43;;;;;;;6.55;1.10;;;;;;;8.29;67.78;101042.59;5066266;28;20060;-79
2021/01/12 10:50:23;;;;;;;13.85;1.23;;;;;;;8.46;67.83;101035.50;5067336;27;20033;-84
2021/01/12 10:52:50;;;;;;;7.43;1.10;;;;;;;8.39;67.16;101033.75;5049710;28;20025;-81
2021/01/12 10:55:21;;;;;;;5.50;1.15;;;;;;;8.52;67.45;101035.44;5051229;28;20025;-85
2021/01/12 10:57:48;;;;;;;5.75;1.15;;;;;;;8.21;66.16;101040.03;5050522;28;20033;-79
2021/01/12 11:00:15;;;;;;;15.18;1.80;;;;;;;8.42;66.29;101041.63;5051022;28;20045;-81
2021/01/12 11:02:49;;;;;;;8.13;1.75;;;;;;;8.42;64.31;101047.81;5051308;28;20021;-82
2021/01/12 11:05:19;;;;;;;10.32;1.30;;;;;;;8.59;65.61;101052.09;5051354;28;20029;-88
2021/01/12 11:07:45;;;;;;;10.10;1.27;;;;;;;8.72;65.65;101055.50;5042356;28;20032;-84
2021/01/12 11:10:12;;;;;;;13.23;1.20;;;;;;;8.57;63.46;101075.00;5045835;28;20033;-80
2021/01/12 11:12:39;;;;;;;8.07;1.17;;;;;;;8.61;63.65;101063.53;5051009;28;20497;-84
2021/01/12 11:15:08;;;;;;;10.82;1.60;;;;;;;8.69;62.07;101068.75;5060707;27;20029;-80
2021/01/12 11:17:36;;;;;;;14.90;2.63;;;;;;;8.73;60.19;101065.19;5052416;28;20029;-83
2021/01/12 11:20:06;;;;;;;6.60;1.20;;;;;;;8.67;60.06;101074.06;5041102;28;20029;-80
2021/01/12 11:22:32;;;;;;;14.18;1.88;;;;;;;8.63;58.85;101080.22;5040188;28;20550;-81
2021/01/12 11:25:01;;;;;;;7.30;1.45;;;;;;;8.53;59.54;101073.28;5039693;28;20479;-81
2021/01/12 11:27:29;;;;;;;6.50;1.20;;;;;;;8.26;57.12;101075.19;5032106;28;20408;-81
2021/01/12 11:29:55;;;;;;;10.40;1.08;;;;;;;8.38;57.08;101080.38;5032462;28;20428;-80
2021/01/12 11:32:23;;;;;;;12.15;2.10;;;;;;;8.25;57.08;101084.88;5031765;28;20103;-79
2021/01/12 11:34:50;;;;;;;4.18;0.85;;;;;;;8.29;57.12;101087.47;5032810;28;20450;-82
2021/01/12 11:37:17;;;;;;;14.30;1.42;;;;;;;8.36;56.82;101076.91;5031921;28;20029;-80
2021/01/12 11:39:44;;;;;;;10.10;2.03;;;;;;;8.28;56.89;101083.97;5033231;27;20080;-85
2021/01/12 11:42:12;;;;;;;13.18;1.55;;;;;;;8.43;56.92;101085.63;5035060;28;20041;-80
2021/01/12 11:44:39;;;;;;;16.02;1.25;;;;;;;8.12;56.11;101082.34;5041326;28;20025;-80
2021/01/12 11:47:08;;;;;;;6.40;1.48;;;;;;;8.13;56.74;101095.50;5058557;28;20033;-81
2021/01/12 11:49:35;;;;;;;3.28;1.35;;;;;;;8.06;56.34;101089.41;5054147;28;20029;-77
2021/01/12 11:52:08;;;;;;;6.43;1.08;;;;;;;8.32;56.17;101096.25;5048241;28;20037;-84
2021/01/12 11:54:37;;;;;;;6.55;1.17;;;;;;;8.32;55.54;101095.41;5053246;27;20025;-83
2021/01/12 11:57:05;;;;;;;13.93;1.30;;;;;;;8.46;56.08;101087.38;5051838;27;20387;-83
2021/01/12 11:59:34;;;;;;;9.05;1.58;;;;;;;8.36;55.15;101086.56;5039576;28;20036;-84
2021/01/12 12:02:05;;;;;;;13.18;1.27;;;;;;;8.58;54.71;101092.59;5033227;28;20038;-83
2021/01/12 12:04:31;;;;;;;7.72;1.40;;;;;;;8.72;54.74;101085.47;5045559;28;20112;-79